Time;durP1;ratioP1;P1;durP2;ratioP2;P2;SDS_P1;SDS_P2;PMS_P1;PMS_P2;Temp;Humidity;BMP_temperature;BMP_pressure;BME280_temperature;BME280_humidity;BME280_pressure;Samples;Min_cycle;Max_cycle;Signal;HPM_P1;HPM_P2
2022/03/23 00:01:53;;;;;;;57.75;30.75;;;;;;;9.04;93.13;103118.75;5032476;28;20033;-73
2022/03/23 00:04:19;;;;;;;58.47;30.83;;;;;;;8.98;92.90;103110.53;5035290;28;20417;-73
2022/03/23 00:06:45;;;;;;;56.15;32.03;;;;;;;8.93;93.76;103112.84;5033794;28;20055;-72
2022/03/23 00:09:10;;;;;;;56.38;30.38;;;;;;;8.99;93.10;103117.56;5033628;28;20426;-72
2022/03/23 00:11:35;;;;;;;53.35;31.00;;;;;;;9.12;93.54;103111.34;5031230;28;20112;-72
2022/03/23 00:14:01;;;;;;;59.17;30.92;;;;;;;9.03;93.23;103110.78;5033530;28;20053;-73
2022/03/23 00:16:26;;;;;;;53.45;29.60;;;;;;;8.97;92.98;103113.94;5036633;28;20037;-73
2022/03/23 00:18:52;;;;;;;54.90;30.58;;;;;;;8.87;93.18;103111.56;5032916;28;20469;-73
2022/03/23 00:21:17;;;;;;;63.63;31.17;;;;;;;8.85;94.22;103118.47;5035484;28;20499;-72
2022/03/23 00:23:42;;;;;;;61.80;30.60;;;;;;;8.78;94.30;103112.84;5036365;28;20025;-72
2022/03/23 00:26:08;;;;;;;55.53;30.75;;;;;;;8.77;94.75;103111.00;5035142;28;20026;-73
2022/03/23 00:28:34;;;;;;;58.28;31.75;;;;;;;8.54;94.48;103114.88;5034683;28;20356;-73
2022/03/23 00:30:59;;;;;;;56.78;31.17;;;;;;;8.60;96.56;103115.25;5033895;28;20036;-73
2022/03/23 00:33:24;;;;;;;61.10;32.88;;;;;;;8.65;95.38;103114.63;5029691;28;20427;-74
2022/03/23 00:35:50;;;;;;;55.90;29.80;;;;;;;8.61;94.89;103116.16;5035892;28;20044;-72
2022/03/23 00:38:16;;;;;;;61.33;30.67;;;;;;;8.54;95.16;103103.47;5030628;28;20033;-72
2022/03/23 00:40:44;;;;;;;59.70;31.70;;;;;;;8.50;95.97;103114.59;5036611;28;20030;-72
2022/03/23 00:43:10;;;;;;;60.20;31.55;;;;;;;8.44;95.56;103115.97;5035872;28;20029;-73
2022/03/23 00:45:36;;;;;;;55.08;30.67;;;;;;;8.45;95.90;103116.94;5032828;28;20029;-72
2022/03/23 00:48:02;;;;;;;61.42;31.52;;;;;;;8.41;95.41;103107.94;5035750;28;20033;-72
2022/03/23 00:50:28;;;;;;;59.72;32.10;;;;;;;8.37;96.44;103108.56;5034269;28;20489;-72
2022/03/23 00:52:53;;;;;;;60.40;31.33;;;;;;;8.33;96.88;103106.56;5034838;28;20041;-72
2022/03/23 00:55:18;;;;;;;58.97;32.08;;;;;;;8.29;96.86;103115.03;5034707;28;20491;-73
2022/03/23 00:57:44;;;;;;;56.00;32.15;;;;;;;8.23;96.47;103107.69;5032743;28;20033;-73
2022/03/23 01:00:13;;;;;;;62.88;32.67;;;;;;;8.21;97.32;103106.69;5023974;28;20458;-73
2022/03/23 01:02:39;;;;;;;56.45;31.15;;;;;;;8.22;96.62;103108.50;5029916;28;20500;-73
2022/03/23 01:05:06;;;;;;;60.83;31.70;;;;;;;8.17;96.49;103111.66;5035337;28;20026;-73
2022/03/23 01:07:31;;;;;;;57.50;31.35;;;;;;;8.15;97.05;103105.38;5032976;28;20426;-73
2022/03/23 01:09:56;;;;;;;58.58;29.98;;;;;;;8.14;96.89;103111.44;5032351;28;20168;-72
2022/03/23 01:12:22;;;;;;;59.05;30.55;;;;;;;8.04;96.81;103112.56;5029959;28;20037;-73
2022/03/23 01:14:47;;;;;;;62.97;32.47;;;;;;;8.07;97.51;103108.44;5032383;28;20103;-72
2022/03/23 01:17:13;;;;;;;68.03;32.17;;;;;;;8.03;97.19;103109.06;5032459;28;20104;-72
2022/03/23 01:19:38;;;;;;;58.30;31.33;;;;;;;7.96;97.44;103104.22;5034031;28;20442;-73
2022/03/23 01:22:04;;;;;;;56.85;30.30;;;;;;;7.92;97.32;103108.38;5033149;28;20128;-73
2022/03/23 01:24:30;;;;;;;59.47;30.92;;;;;;;7.90;97.07;103098.59;5035627;28;20107;-72
2022/03/23 01:26:56;;;;;;;55.35;30.10;;;;;;;7.85;97.50;103094.78;5030939;28;20056;-72
2022/03/23 01:29:21;;;;;;;60.10;31.73;;;;;;;7.81;97.72;103098.00;5033378;28;20041;-72
2022/03/23 01:31:46;;;;;;;68.03;31.65;;;;;;;7.76;98.51;103098.63;5032152;28;20033;-72
2022/03/23 01:34:12;;;;;;;54.88;30.98;;;;;;;7.76;98.83;103097.72;5035388;28;20025;-72
2022/03/23 01:36:37;;;;;;;61.50;31.80;;;;;;;7.79;98.41;103099.63;5035407;28;20116;-72
2022/03/23 01:39:03;;;;;;;53.85;30.30;;;;;;;7.78;97.81;103093.47;5034550;28;20034;-72
2022/03/23 01:41:29;;;;;;;56.55;30.08;;;;;;;7.75;98.12;103095.91;5034291;28;20037;-72
2022/03/23 01:43:54;;;;;;;59.13;30.65;;;;;;;7.73;97.87;103095.81;5021120;28;20018;-73
2022/03/23 01:46:20;;;;;;;57.15;31.77;;;;;;;7.73;98.42;103100.13;5031289;28;20021;-72
2022/03/23 01:48:47;;;;;;;55.33;30.38;;;;;;;7.64;98.03;103091.66;5034320;28;20086;-73
2022/03/23 01:51:13;;;;;;;58.47;29.90;;;;;;;7.66;98.88;103093.56;5026978;28;20501;-72
2022/03/23 01:53:38;;;;;;;55.30;29.60;;;;;;;7.65;98.50;103093.47;5022307;28;20033;-71
2022/03/23 01:56:04;;;;;;;56.08;29.77;;;;;;;7.57;98.75;103096.50;5034549;28;20140;-72
2022/03/23 01:58:30;;;;;;;53.55;30.58;;;;;;;7.56;98.39;103080.69;5027503;28;20017;-72
2022/03/23 02:00:55;;;;;;;51.15;29.30;;;;;;;7.55;98.32;103091.97;5034879;28;20037;-72
2022/03/23 02:03:21;;;;;;;60.53;31.02;;;;;;;7.52;98.42;103089.16;5034346;28;20033;-72
2022/03/23 02:05:47;;;;;;;58.33;30.42;;;;;;;7.47;98.67;103086.22;5031893;28;20017;-72
2022/03/23 02:08:13;;;;;;;53.60;29.05;;;;;;;7.45;98.67;103092.16;5034555;28;20041;-72
2022/03/23 02:10:40;;;;;;;57.22;31.33;;;;;;;7.42;98.79;103085.94;5027986;28;20038;-72
2022/03/23 02:13:06;;;;;;;60.17;32.03;;;;;;;7.41;98.57;103091.09;5033133;28;20034;-72
2022/03/23 02:15:32;;;;;;;58.60;31.10;;;;;;;7.35;98.98;103075.88;5033538;28;20021;-72
2022/03/23 02:17:57;;;;;;;55.85;30.05;;;;;;;7.34;99.34;103084.53;5033705;28;20033;-72
2022/03/23 02:20:24;;;;;;;56.42;31.02;;;;;;;7.31;99.40;103079.09;5031637;28;20405;-72
2022/03/23 02:22:50;;;;;;;53.85;29.63;;;;;;;7.30;99.28;103078.97;5032739;28;20063;-72
2022/03/23 02:25:21;;;;;;;56.00;31.92;;;;;;;7.27;99.10;103079.72;5032980;28;20114;-72
2022/03/23 02:27:47;;;;;;;54.00;30.00;;;;;;;7.20;98.85;103081.00;5031456;28;20044;-72
2022/03/23 02:30:13;;;;;;;54.67;32.08;;;;;;;7.17;99.02;103079.88;5032846;28;20029;-72
2022/03/23 02:32:39;;;;;;;62.78;30.98;;;;;;;7.11;99.53;103079.47;5033717;28;20021;-72
2022/03/23 02:35:05;;;;;;;59.10;30.65;;;;;;;7.06;99.57;103081.78;5030793;28;20474;-72
2022/03/23 02:37:30;;;;;;;54.95;30.08;;;;;;;7.00;99.82;103082.28;5027931;28;20034;-72
2022/03/23 02:39:56;;;;;;;52.40;29.33;;;;;;;6.94;100.00;103074.00;5026704;28;20037;-72
2022/03/23 02:42:21;;;;;;;53.45;27.88;;;;;;;6.92;100.00;103070.41;5031920;28;20033;-72
2022/03/23 02:44:48;;;;;;;58.05;31.02;;;;;;;7.26;100.00;103083.13;5034179;28;20028;-72
2022/03/23 02:47:13;;;;;;;54.30;30.05;;;;;;;7.09;99.76;103080.28;5033566;28;20095;-72
2022/03/23 02:49:39;;;;;;;61.22;30.67;;;;;;;6.98;99.22;103077.75;5029369;28;20025;-72
2022/03/23 02:52:05;;;;;;;57.28;29.13;;;;;;;6.92;99.79;103079.13;5030683;28;20049;-72
2022/03/23 03:03:26;;;;;;;60.67;28.67;;;;;;;6.77;99.99;103077.19;5024433;28;20143;-72
2022/03/23 03:05:52;;;;;;;47.92;28.10;;;;;;;6.73;99.95;103079.59;5031979;28;20338;-71
2022/03/23 03:11:01;;;;;;;55.78;29.75;;;;;;;6.66;100.00;103079.06;5029035;28;20095;-72
2022/03/23 03:13:29;;;;;;;52.28;28.85;;;;;;;6.62;100.00;103085.81;5030273;28;20030;-73
2022/03/23 03:16:00;;;;;;;52.80;28.45;;;;;;;6.57;100.00;103080.25;5029097;28;20492;-72
2022/03/23 03:18:25;;;;;;;53.17;30.35;;;;;;;6.57;100.00;103088.09;5031290;28;20489;-72
2022/03/23 03:20:51;;;;;;;53.05;29.45;;;;;;;6.55;100.00;103092.34;5028439;28;20113;-72
2022/03/23 03:23:16;;;;;;;56.47;29.75;;;;;;;6.55;100.00;103088.78;5033085;28;20060;-72
2022/03/23 03:25:41;;;;;;;47.70;27.05;;;;;;;6.51;100.00;103085.06;5032576;28;20119;-72
2022/03/23 03:28:07;;;;;;;58.30;30.65;;;;;;;6.47;100.00;103087.34;5030814;28;20481;-73
2022/03/23 03:30:32;;;;;;;53.03;29.13;;;;;;;6.44;100.00;103084.53;5029422;28;20033;-73
2022/03/23 03:32:57;;;;;;;52.00;28.58;;;;;;;6.46;100.00;103085.53;5030290;28;20124;-72
2022/03/23 03:35:23;;;;;;;59.25;29.88;;;;;;;6.41;100.00;103085.22;5031529;28;20041;-72
2022/03/23 03:37:48;;;;;;;51.13;29.23;;;;;;;6.38;100.00;103093.75;5031752;28;20030;-72
2022/03/23 03:40:13;;;;;;;55.22;28.50;;;;;;;6.49;100.00;103094.50;5032194;28;20031;-72
2022/03/23 03:42:39;;;;;;;53.30;28.60;;;;;;;6.35;100.00;103096.16;5031071;28;20029;-72
2022/03/23 03:45:05;;;;;;;50.78;28.08;;;;;;;6.33;100.00;103089.91;5029280;28;20029;-72
2022/03/23 03:47:31;;;;;;;51.63;28.00;;;;;;;6.29;100.00;103085.25;5031895;28;20028;-71
2022/03/23 03:49:56;;;;;;;58.35;27.88;;;;;;;6.30;100.00;103091.41;5029485;28;20033;-72
2022/03/23 03:52:21;;;;;;;51.17;27.65;;;;;;;6.45;100.00;103086.34;5032527;28;20040;-72
2022/03/23 03:54:46;;;;;;;49.65;27.55;;;;;;;6.24;100.00;103090.19;5031345;28;20018;-72
2022/03/23 03:57:12;;;;;;;55.67;28.05;;;;;;;6.23;100.00;103090.09;5030479;28;20036;-71
2022/03/23 03:59:38;;;;;;;48.22;27.40;;;;;;;6.28;100.00;103095.63;5032409;28;20032;-72
2022/03/23 04:02:04;;;;;;;51.67;28.02;;;;;;;6.24;100.00;103094.50;5030214;28;20029;-71
2022/03/23 04:04:30;;;;;;;57.95;28.83;;;;;;;6.26;100.00;103098.13;5032957;28;20030;-72
2022/03/23 04:06:55;;;;;;;46.13;25.95;;;;;;;6.23;100.00;103103.16;5031402;28;20088;-72
2022/03/23 04:09:21;;;;;;;52.78;29.13;;;;;;;6.22;100.00;103094.38;5030766;28;20025;-72
2022/03/23 04:11:46;;;;;;;46.70;26.42;;;;;;;6.19;100.00;103101.13;5028109;28;20025;-72
2022/03/23 04:14:12;;;;;;;47.40;27.15;;;;;;;6.14;100.00;103097.25;5031023;28;20497;-72
2022/03/23 04:16:37;;;;;;;56.83;28.42;;;;;;;6.12;100.00;103104.06;5030776;28;20032;-72
2022/03/23 04:19:05;;;;;;;50.47;26.23;;;;;;;6.08;100.00;103101.25;5030502;28;20532;-72
2022/03/23 04:21:31;;;;;;;48.80;27.67;;;;;;;6.04;100.00;103103.56;5031381;28;20029;-72
2022/03/23 04:23:57;;;;;;;49.88;27.33;;;;;;;6.02;100.00;103108.66;5030355;28;20099;-73
2022/03/23 04:26:22;;;;;;;53.88;27.48;;;;;;;5.97;100.00;103102.16;5031803;28;20026;-72
2022/03/23 04:28:47;;;;;;;49.22;26.90;;;;;;;5.95;100.00;103106.34;5029418;28;20108;-72
2022/03/23 04:31:13;;;;;;;49.80;26.50;;;;;;;5.87;100.00;103102.28;5030342;28;20036;-72
2022/03/23 04:33:38;;;;;;;61.15;29.00;;;;;;;5.86;100.00;103110.91;5033425;28;20386;-72
2022/03/23 04:36:04;;;;;;;49.95;27.40;;;;;;;5.80;100.00;103111.38;5031142;28;20432;-72
2022/03/23 04:38:29;;;;;;;60.42;28.05;;;;;;;5.78;100.00;103113.00;5031622;28;20470;-72
2022/03/23 04:40:54;;;;;;;69.30;28.23;;;;;;;5.78;100.00;103106.84;5026043;28;20025;-72
2022/03/23 04:43:20;;;;;;;58.50;27.27;;;;;;;5.76;100.00;103113.69;5033212;28;20029;-71
2022/03/23 04:45:45;;;;;;;51.28;27.27;;;;;;;5.72;100.00;103116.06;5032667;28;20021;-72
2022/03/23 04:48:11;;;;;;;57.58;26.10;;;;;;;5.72;100.00;103118.69;5032524;28;20026;-72
2022/03/23 04:50:36;;;;;;;52.15;27.13;;;;;;;5.72;100.00;103123.91;5035449;28;20041;-72
2022/03/23 04:53:01;;;;;;;51.03;27.25;;;;;;;5.71;100.00;103126.38;5031850;28;20032;-72
2022/03/23 04:55:27;;;;;;;53.60;27.60;;;;;;;5.65;100.00;103124.22;5036345;28;20073;-72
2022/03/23 04:57:52;;;;;;;51.38;27.15;;;;;;;5.61;100.00;103124.81;5033027;28;20044;-72
2022/03/23 05:00:20;;;;;;;47.80;26.33;;;;;;;5.60;100.00;103122.97;5031884;28;20048;-72
2022/03/23 05:02:46;;;;;;;48.80;27.63;;;;;;;5.58;100.00;103124.59;5034130;28;20033;-72
2022/03/23 05:05:13;;;;;;;48.28;26.13;;;;;;;5.52;100.00;103125.03;5035960;28;20499;-72
2022/03/23 05:07:40;;;;;;;50.47;25.85;;;;;;;5.47;100.00;103126.41;5033687;28;20061;-72
2022/03/23 05:10:07;;;;;;;52.80;24.60;;;;;;;5.46;100.00;103128.91;5034548;28;20033;-72
2022/03/23 05:12:32;;;;;;;53.38;26.83;;;;;;;5.47;100.00;103131.63;5034185;28;20040;-72
2022/03/23 05:14:58;;;;;;;54.55;27.23;;;;;;;5.48;100.00;103132.53;5033662;28;20025;-72
2022/03/23 05:17:23;;;;;;;48.80;25.42;;;;;;;5.46;100.00;103139.34;5033322;28;20245;-72
2022/03/23 05:19:48;;;;;;;47.42;26.55;;;;;;;5.52;100.00;103135.50;5035747;28;20025;-71
2022/03/23 05:22:14;;;;;;;47.30;28.08;;;;;;;5.44;100.00;103135.69;5031763;28;20112;-72
2022/03/23 05:24:42;;;;;;;51.55;26.35;;;;;;;5.42;100.00;103135.59;5034824;28;20045;-72
2022/03/23 05:27:08;;;;;;;47.83;26.27;;;;;;;5.40;100.00;103135.47;5032059;28;20125;-72
2022/03/23 05:29:35;;;;;;;48.95;25.48;;;;;;;5.44;100.00;103133.09;5029296;28;20556;-72
2022/03/23 05:32:00;;;;;;;49.88;25.55;;;;;;;5.37;100.00;103136.94;5032513;28;20025;-73
2022/03/23 05:34:25;;;;;;;52.25;26.33;;;;;;;5.31;100.00;103137.41;5034481;28;20032;-72
2022/03/23 05:36:50;;;;;;;47.20;26.02;;;;;;;5.30;100.00;103140.78;5032305;28;20033;-72
2022/03/23 05:39:16;;;;;;;51.88;26.58;;;;;;;5.23;100.00;103135.91;5034201;28;20060;-72
2022/03/23 05:41:42;;;;;;;45.53;24.98;;;;;;;5.19;100.00;103133.88;5032764;28;20389;-72
2022/03/23 05:44:07;;;;;;;49.67;25.77;;;;;;;5.18;100.00;103132.03;5033532;28;20030;-72
2022/03/23 05:46:33;;;;;;;48.88;26.38;;;;;;;5.20;100.00;103135.69;5031604;28;20033;-73
2022/03/23 05:48:58;;;;;;;47.72;26.45;;;;;;;5.16;100.00;103137.16;5033791;28;20489;-72
2022/03/23 05:51:24;;;;;;;48.30;26.30;;;;;;;5.16;100.00;103144.09;5032114;28;20128;-72
2022/03/23 05:53:50;;;;;;;46.75;27.17;;;;;;;5.22;100.00;103142.84;5032431;28;20038;-72
2022/03/23 05:56:15;;;;;;;50.67;26.70;;;;;;;5.16;100.00;103144.97;5032072;28;20057;-73
2022/03/23 05:58:41;;;;;;;55.47;27.38;;;;;;;5.24;100.00;103149.06;5031566;28;20049;-73
2022/03/23 06:01:06;;;;;;;53.08;26.40;;;;;;;5.28;100.00;103147.63;5030373;28;20033;-73
2022/03/23 06:03:32;;;;;;;55.83;27.63;;;;;;;5.28;100.00;103144.13;5033771;28;20029;-72
2022/03/23 06:05:58;;;;;;;50.90;26.80;;;;;;;5.26;100.00;103146.56;5034479;28;20100;-72
2022/03/23 06:08:23;;;;;;;52.42;27.65;;;;;;;5.27;100.00;103151.00;5032643;28;20973;-73
2022/03/23 06:10:49;;;;;;;43.97;25.38;;;;;;;5.26;100.00;103153.50;5026834;28;20046;-68
2022/03/23 06:13:14;;;;;;;50.65;27.42;;;;;;;5.24;100.00;103149.06;5023701;28;20028;-68
2022/03/23 06:15:40;;;;;;;57.20;31.05;;;;;;;5.22;100.00;103148.06;5030305;28;20013;-71
2022/03/23 06:18:05;;;;;;;55.30;27.58;;;;;;;5.29;100.00;103157.28;5032096;28;20029;-71
2022/03/23 06:20:30;;;;;;;52.00;27.25;;;;;;;5.33;100.00;103147.94;5032223;28;20028;-71
2022/03/23 06:22:56;;;;;;;62.08;28.52;;;;;;;5.39;100.00;103154.53;5029379;28;20041;-72
2022/03/23 06:25:21;;;;;;;58.05;28.52;;;;;;;5.40;100.00;103155.47;5029291;28;20104;-72
2022/03/23 06:27:46;;;;;;;51.10;27.40;;;;;;;5.43;100.00;103153.09;5033669;28;20025;-72
2022/03/23 06:30:12;;;;;;;61.13;27.58;;;;;;;5.48;100.00;103161.25;5031061;28;20397;-72
2022/03/23 06:32:38;;;;;;;68.47;27.45;;;;;;;5.56;100.00;103152.28;5033056;28;20060;-72
2022/03/23 06:35:04;;;;;;;59.13;30.02;;;;;;;5.71;100.00;103163.88;5026884;28;20498;-72
2022/03/23 06:37:32;;;;;;;57.72;28.02;;;;;;;5.80;100.00;103154.91;5025942;28;20037;-72
2022/03/23 06:39:58;;;;;;;54.28;27.13;;;;;;;5.83;100.00;103158.66;5028901;28;20389;-71
2022/03/23 06:42:25;;;;;;;57.40;27.38;;;;;;;5.88;100.00;103154.66;5028936;28;20030;-70
2022/03/23 06:44:50;;;;;;;56.47;28.40;;;;;;;5.92;100.00;103153.19;5028451;28;20021;-71
2022/03/23 06:47:16;;;;;;;57.47;27.58;;;;;;;5.96;100.00;103160.44;5031570;28;20496;-71
2022/03/23 06:49:42;;;;;;;54.70;29.55;;;;;;;6.03;100.00;103157.50;5033946;28;20445;-71
2022/03/23 06:52:08;;;;;;;53.30;30.13;;;;;;;6.07;100.00;103163.88;5031466;28;20065;-71
2022/03/23 06:54:33;;;;;;;59.38;28.40;;;;;;;6.14;100.00;103160.00;5029492;28;20057;-72
2022/03/23 06:57:00;;;;;;;70.10;32.58;;;;;;;6.26;100.00;103166.09;5017982;28;20427;-71
2022/03/23 06:59:25;;;;;;;66.15;31.42;;;;;;;6.37;100.00;103159.94;5022456;28;20052;-71
2022/03/23 07:01:50;;;;;;;66.35;31.27;;;;;;;6.45;100.00;103159.59;5030486;28;20067;-72
2022/03/23 07:04:16;;;;;;;52.35;28.90;;;;;;;6.51;100.00;103160.94;5029458;28;20061;-71
2022/03/23 07:06:41;;;;;;;56.53;29.33;;;;;;;6.57;100.00;103163.06;5031227;28;20025;-71
2022/03/23 07:11:51;;;;;;;53.83;25.48;;;;;;;6.69;100.00;103165.66;5031411;28;20036;-71
2022/03/23 07:14:16;;;;;;;54.17;28.17;;;;;;;6.75;100.00;103164.38;5026760;28;20385;-72
2022/03/23 07:16:42;;;;;;;57.70;27.23;;;;;;;6.83;100.00;103164.88;5033801;28;20488;-71
2022/03/23 07:19:08;;;;;;;54.42;27.52;;;;;;;6.92;100.00;103167.25;5021538;28;20043;-71
2022/03/23 07:21:34;;;;;;;50.33;27.02;;;;;;;7.00;100.00;103175.59;5023392;28;20033;-71
2022/03/23 07:24:00;;;;;;;49.10;26.25;;;;;;;7.06;100.00;103171.69;5031509;28;20013;-71
2022/03/23 07:26:25;;;;;;;52.60;25.90;;;;;;;7.15;100.00;103176.66;5031737;28;20040;-72
2022/03/23 07:28:50;;;;;;;44.33;25.08;;;;;;;7.23;100.00;103177.16;5032583;28;20104;-72
2022/03/23 07:31:16;;;;;;;45.90;24.90;;;;;;;7.31;100.00;103183.88;5033364;28;20082;-71
2022/03/23 07:33:41;;;;;;;50.22;25.55;;;;;;;7.37;99.49;103179.03;5032566;28;20021;-71
2022/03/23 07:36:06;;;;;;;45.83;24.63;;;;;;;7.43;98.61;103178.50;5031660;28;20029;-71
2022/03/23 07:38:32;;;;;;;43.67;24.02;;;;;;;7.54;98.14;103181.84;5030519;28;20108;-72
2022/03/23 07:40:59;;;;;;;45.60;25.17;;;;;;;7.64;99.50;103184.28;5027555;28;20030;-72
2022/03/23 07:43:24;;;;;;;41.67;24.85;;;;;;;7.69;99.28;103185.50;5030101;28;20079;-72
2022/03/23 07:45:49;;;;;;;53.75;26.63;;;;;;;7.78;98.02;103194.78;5031684;28;20393;-72
2022/03/23 07:48:18;;;;;;;43.70;24.90;;;;;;;7.87;96.88;103195.41;5031411;28;20026;-71
2022/03/23 07:50:43;;;;;;;42.90;24.75;;;;;;;8.03;94.72;103195.59;5032847;28;20053;-72
2022/03/23 07:53:08;;;;;;;45.65;25.15;;;;;;;8.13;95.43;103201.44;5032380;28;20039;-72
2022/03/23 07:55:34;;;;;;;45.97;24.33;;;;;;;8.27;92.26;103193.66;5029033;28;20029;-72
2022/03/23 07:57:59;;;;;;;46.08;23.35;;;;;;;8.41;92.38;103198.84;5029737;28;20081;-71
2022/03/23 08:00:24;;;;;;;39.78;23.80;;;;;;;8.50;92.08;103198.56;5032388;28;20061;-71
2022/03/23 08:17:25;;;;;;;43.88;26.88;;;;;;;9.29;84.89;103191.13;5064525;28;20142;-72
2022/03/23 08:20:32;;;;;;;41.95;25.02;;;;;;;9.45;81.87;103193.88;5047624;28;20049;-72
2022/03/23 08:22:36;;;;;;;38.10;22.73;;;;;;;9.57;83.22;103192.78;5047678;28;20095;-72
2022/03/23 08:25:02;;;;;;;41.45;24.90;;;;;;;9.59;84.29;103193.75;5030004;28;20034;-72
2022/03/23 08:27:27;;;;;;;46.35;24.85;;;;;;;9.66;83.02;103188.06;5014330;28;20040;-74
2022/03/23 08:29:53;;;;;;;40.42;22.63;;;;;;;9.81;80.88;103184.47;5014054;28;20040;-73
2022/03/23 08:32:18;;;;;;;37.25;22.30;;;;;;;9.95;79.57;103181.81;5047769;28;20126;-73
2022/03/23 08:34:44;;;;;;;45.20;22.38;;;;;;;10.15;78.07;103183.75;5027188;28;20052;-74
2022/03/23 08:37:09;;;;;;;44.15;23.38;;;;;;;10.25;77.60;103187.00;5041160;28;20038;-72
2022/03/23 08:39:34;;;;;;;37.35;21.92;;;;;;;10.37;76.49;103181.53;5040906;28;20026;-73
2022/03/23 08:42:00;;;;;;;42.20;22.83;;;;;;;10.44;76.66;103185.41;5021735;28;20083;-73
2022/03/23 08:44:25;;;;;;;38.85;21.60;;;;;;;10.53;75.18;103185.94;5038620;28;20402;-73
2022/03/23 08:46:50;;;;;;;35.92;22.50;;;;;;;10.65;75.28;103174.25;5034634;28;20062;-73
2022/03/23 08:49:16;;;;;;;38.33;22.88;;;;;;;10.72;74.21;103176.41;5037715;28;20534;-73
2022/03/23 08:51:41;;;;;;;39.20;22.40;;;;;;;10.80;74.68;103182.97;5042464;28;21592;-73
2022/03/23 08:54:06;;;;;;;34.35;20.25;;;;;;;10.92;70.60;103182.72;5043847;28;20033;-72
2022/03/23 08:56:32;;;;;;;34.35;21.13;;;;;;;11.11;68.19;103174.97;5039437;28;20029;-73
2022/03/23 08:58:57;;;;;;;37.30;21.02;;;;;;;11.36;69.19;103186.75;5032560;28;20056;-72
2022/03/23 09:01:23;;;;;;;46.22;20.80;;;;;;;11.54;69.24;103180.59;5031344;28;20025;-73
2022/03/23 09:03:49;;;;;;;45.13;23.38;;;;;;;11.64;71.30;103189.06;5014769;28;20043;-73
2022/03/23 09:06:15;;;;;;;39.15;21.23;;;;;;;11.86;69.98;103194.50;5043315;28;20029;-73
2022/03/23 09:08:40;;;;;;;43.10;22.60;;;;;;;12.08;69.17;103192.09;5013536;28;20032;-74
2022/03/23 09:11:06;;;;;;;36.38;22.58;;;;;;;12.27;69.95;103192.97;4995953;28;20389;-74
2022/03/23 09:13:32;;;;;;;36.75;22.70;;;;;;;12.44;67.76;103192.03;5033070;28;20029;-74
2022/03/23 09:15:57;;;;;;;35.22;21.85;;;;;;;12.64;69.78;103195.63;5030621;28;20047;-74
2022/03/23 09:18:26;;;;;;;35.03;22.23;;;;;;;12.80;69.72;103197.22;5020121;28;20030;-73
2022/03/23 09:20:51;;;;;;;36.92;21.88;;;;;;;13.03;69.57;103199.97;4997395;28;20427;-73
2022/03/23 09:23:17;;;;;;;36.80;22.55;;;;;;;13.19;68.42;103190.09;5015731;28;20029;-73
2022/03/23 09:25:43;;;;;;;37.60;22.75;;;;;;;13.28;64.52;103190.47;5014698;28;20088;-73
2022/03/23 09:28:11;;;;;;;34.65;21.20;;;;;;;13.47;62.98;103193.09;5006819;28;20049;-73
2022/03/23 09:30:36;;;;;;;35.25;20.05;;;;;;;13.81;62.59;103186.56;4995997;28;20037;-71
2022/03/23 09:33:02;;;;;;;32.58;21.10;;;;;;;14.13;58.80;103180.75;5011862;28;20057;-71
2022/03/23 09:35:27;;;;;;;34.75;21.42;;;;;;;14.41;55.67;103180.09;4996996;28;20072;-71
2022/03/23 09:37:56;;;;;;;35.17;21.05;;;;;;;14.49;55.21;103175.09;4988890;28;20076;-71
2022/03/23 09:40:28;;;;;;;32.97;21.27;;;;;;;14.64;56.46;103177.44;5007939;28;20033;-72
2022/03/23 09:42:57;;;;;;;37.13;22.00;;;;;;;14.63;56.86;103176.53;5014284;28;20025;-73
2022/03/23 09:48:09;;;;;;;30.13;21.20;;;;;;;15.05;50.94;103171.84;5012481;28;20092;-73
2022/03/23 09:50:38;;;;;;;39.42;20.58;;;;;;;15.33;53.27;103179.03;4998003;28;20048;-73
2022/03/23 09:53:04;;;;;;;39.30;22.23;;;;;;;15.66;52.07;103181.00;5001053;28;20422;-73
2022/03/23 09:55:30;;;;;;;41.85;22.60;;;;;;;15.81;50.15;103173.56;5008354;28;20359;-73
2022/03/23 09:57:57;;;;;;;34.55;21.15;;;;;;;16.17;51.22;103178.25;5014647;28;20022;-73
2022/03/23 10:00:30;;;;;;;35.22;22.80;;;;;;;16.18;51.93;103182.72;4995959;28;20048;-73
2022/03/23 10:02:55;;;;;;;33.88;21.83;;;;;;;16.06;50.61;103174.38;5011972;28;20091;-73
2022/03/23 10:05:22;;;;;;;36.53;22.48;;;;;;;16.67;48.88;103185.00;5013329;28;20101;-73
2022/03/23 10:08:03;;;;;;;40.92;23.60;;;;;;;17.15;47.55;103173.09;5012590;28;20036;-74
2022/03/23 10:10:37;;;;;;;33.00;22.00;;;;;;;16.84;49.41;103175.75;5018167;28;20124;-73
2022/03/23 10:13:42;;;;;;;40.25;25.02;;;;;;;17.07;45.64;103175.53;5020488;28;20157;-72
2022/03/23 10:17:08;;;;;;;37.58;21.90;;;;;;;17.07;47.54;103175.53;4992377;28;20053;-73
2022/03/23 10:19:33;;;;;;;41.25;23.02;;;;;;;17.31;47.28;103171.72;4932517;29;20042;-73
2022/03/23 10:22:10;;;;;;;34.95;23.58;;;;;;;17.16;47.88;103177.56;4994183;28;20369;-73
2022/03/23 10:24:36;;;;;;;38.63;22.50;;;;;;;17.31;44.82;103174.41;4995886;28;20057;-73
2022/03/23 10:27:15;;;;;;;42.55;25.42;;;;;;;17.75;44.13;103165.72;4995595;28;20060;-73
2022/03/23 10:29:46;;;;;;;38.72;24.55;;;;;;;18.01;44.47;103172.59;5029313;28;20056;-73
2022/03/23 10:32:13;;;;;;;34.75;22.15;;;;;;;18.15;42.18;103162.25;5014259;28;20385;-73
2022/03/23 10:34:42;;;;;;;33.80;23.10;;;;;;;18.31;42.03;103167.88;5013279;28;20488;-72
2022/03/23 10:37:08;;;;;;;36.10;24.45;;;;;;;18.40;43.08;103160.09;5011373;28;20026;-73
2022/03/23 10:39:33;;;;;;;37.35;24.05;;;;;;;18.71;39.37;103158.06;4996871;28;20113;-74
2022/03/23 10:42:08;;;;;;;42.67;23.70;;;;;;;18.92;40.08;103159.38;4992122;28;20033;-74
2022/03/23 10:44:33;;;;;;;40.00;25.10;;;;;;;18.96;39.28;103153.22;4976043;28;20311;-73
2022/03/23 10:46:59;;;;;;;36.72;24.48;;;;;;;18.92;42.19;103162.94;5003015;28;20171;-72
2022/03/23 10:49:36;;;;;;;39.55;26.77;;;;;;;19.13;39.42;103157.09;5012972;28;20029;-73
2022/03/23 10:52:28;;;;;;;42.90;26.95;;;;;;;19.18;39.49;103160.75;5012140;28;20036;-72
2022/03/23 10:54:58;;;;;;;42.25;26.60;;;;;;;18.94;40.07;103154.97;5011577;28;20041;-73
2022/03/23 10:57:51;;;;;;;37.03;24.88;;;;;;;19.53;38.98;103157.81;5016611;28;20104;-73
2022/03/23 11:00:25;;;;;;;34.50;24.08;;;;;;;19.84;32.70;103144.94;5031427;28;20041;-74
2022/03/23 11:02:51;;;;;;;37.83;26.00;;;;;;;20.10;33.33;103144.41;4998926;28;20029;-72
2022/03/23 11:05:33;;;;;;;39.58;24.77;;;;;;;20.29;33.21;103144.66;5012206;28;20392;-72
2022/03/23 11:08:11;;;;;;;38.17;25.50;;;;;;;20.37;34.18;103149.25;5011736;28;20438;-72
2022/03/23 11:19:11;;;;;;;42.83;23.92;;;;;;;21.56;30.61;103144.22;5009234;28;20056;-72
2022/03/23 11:22:04;;;;;;;45.85;25.73;;;;;;;21.51;28.69;103135.22;4993609;28;20026;-72
2022/03/23 11:24:33;;;;;;;41.67;25.80;;;;;;;21.29;30.46;103139.50;5017717;28;20079;-72
2022/03/23 11:27:00;;;;;;;33.80;24.23;;;;;;;21.60;29.23;103129.97;5022957;28;20064;-72
2022/03/23 11:29:26;;;;;;;32.80;24.15;;;;;;;21.56;28.50;103131.72;5018419;28;20099;-72
2022/03/23 11:31:53;;;;;;;38.03;24.65;;;;;;;21.49;29.24;103126.28;5031400;28;20033;-71
2022/03/23 11:34:20;;;;;;;38.88;25.95;;;;;;;21.61;29.55;103134.44;5017669;28;20033;-72
2022/03/23 11:36:48;;;;;;;36.88;25.02;;;;;;;22.14;28.48;103135.66;4992076;28;20036;-71
2022/03/23 11:39:14;;;;;;;96.13;32.20;;;;;;;22.13;29.70;103133.84;5010907;28;20104;-71
2022/03/23 11:41:43;;;;;;;48.55;26.35;;;;;;;22.36;31.18;103146.50;5027396;28;20476;-71
2022/03/23 11:44:12;;;;;;;46.90;29.45;;;;;;;22.36;28.81;103131.28;5016409;28;20112;-71
2022/03/23 11:46:38;;;;;;;39.17;26.80;;;;;;;22.53;27.64;103123.31;4998927;28;20029;-71
2022/03/23 11:49:25;;;;;;;42.97;28.35;;;;;;;22.95;27.62;103123.38;5013405;28;20036;-70
2022/03/23 11:51:56;;;;;;;37.97;27.00;;;;;;;23.29;27.47;103125.22;5028378;28;20033;-70